Time;durP1;ratioP1;P1;durP2;ratioP2;P2;SDS_P1;SDS_P2;PMS_P1;PMS_P2;Temp;Humidity;BMP_temperature;BMP_pressure;BME280_temperature;BME280_humidity;BME280_pressure;Samples;Min_cycle;Max_cycle;Signal;HPM_P1;HPM_P2
2021/11/25 00:01:26;;;;;;;2.67;1.10;;;24.30;99.90;;;;;;5051992;28;20036;-80
2021/11/25 00:03:54;;;;;;;1.00;0.82;;;24.40;99.90;;;;;;5039809;28;20515;-80
2021/11/25 00:06:22;;;;;;;1.10;0.93;;;24.40;99.90;;;;;;5042934;28;20472;-79
2021/11/25 00:08:49;;;;;;;1.45;0.88;;;24.60;99.90;;;;;;5052872;28;20075;-78
2021/11/25 00:11:16;;;;;;;1.10;0.93;;;24.70;99.90;;;;;;5048527;28;20114;-81
2021/11/25 00:13:44;;;;;;;1.98;0.98;;;24.90;99.90;;;;;;5045262;28;20033;-77
2021/11/25 00:16:11;;;;;;;1.80;1.00;;;24.90;99.90;;;;;;5045627;28;20036;-79
2021/11/25 00:18:39;;;;;;;1.55;0.90;;;25.00;99.90;;;;;;5052353;28;20487;-80
2021/11/25 00:21:08;;;;;;;2.22;1.17;;;25.00;99.90;;;;;;5049611;28;20037;-79
2021/11/25 00:23:37;;;;;;;1.60;0.98;;;25.10;99.90;;;;;;5045768;28;20076;-80
2021/11/25 00:26:04;;;;;;;3.42;1.13;;;25.10;99.90;;;;;;5039545;28;20108;-80
2021/11/25 00:28:32;;;;;;;1.73;1.10;;;25.10;99.90;;;;;;5050896;28;20111;-79
2021/11/25 00:31:01;;;;;;;1.27;1.05;;;25.00;99.90;;;;;;5050439;28;20102;-79
2021/11/25 00:33:29;;;;;;;2.17;1.40;;;25.10;99.90;;;;;;5053510;28;20108;-79
2021/11/25 00:35:57;;;;;;;2.65;1.48;;;25.00;99.90;;;;;;5051614;28;20032;-80
2021/11/25 00:38:25;;;;;;;2.20;1.65;;;25.00;99.90;;;;;;5048086;28;20029;-78
2021/11/25 00:40:52;;;;;;;3.10;1.33;;;25.00;99.90;;;;;;5048103;28;20041;-79
2021/11/25 00:43:23;;;;;;;2.13;1.02;;;25.00;99.90;;;;;;5044141;28;20099;-78
2021/11/25 00:45:50;;;;;;;1.42;1.33;;;25.10;99.90;;;;;;5051673;28;20032;-78
2021/11/25 00:48:18;;;;;;;2.05;1.17;;;25.10;99.90;;;;;;5049815;28;20037;-79
2021/11/25 00:50:47;;;;;;;1.10;1.00;;;25.20;99.90;;;;;;5045534;28;20032;-80
2021/11/25 00:53:15;;;;;;;2.05;1.40;;;25.40;99.90;;;;;;5049714;28;20037;-77
2021/11/25 00:55:43;;;;;;;2.47;1.92;;;25.60;99.90;;;;;;5049114;28;20077;-78
2021/11/25 00:58:10;;;;;;;1.63;1.27;;;25.80;99.90;;;;;;5040410;28;20120;-77
2021/11/25 01:00:38;;;;;;;3.03;1.40;;;25.90;99.90;;;;;;5045006;28;20399;-81
2021/11/25 01:03:06;;;;;;;2.70;1.55;;;25.90;99.90;;;;;;5041709;28;20021;-75
2021/11/25 01:05:34;;;;;;;3.33;1.42;;;26.00;99.90;;;;;;5046635;28;20033;-78
2021/11/25 01:08:01;;;;;;;1.45;1.15;;;26.10;99.90;;;;;;5049415;28;20025;-75
2021/11/25 01:10:29;;;;;;;1.77;1.50;;;26.20;99.90;;;;;;5046275;28;20027;-77
2021/11/25 01:12:57;;;;;;;2.70;1.83;;;26.30;99.90;;;;;;5051522;28;20332;-77
2021/11/25 01:15:31;;;;;;;4.65;1.58;;;26.30;99.90;;;;;;5048032;28;20132;-79
2021/11/25 01:18:01;;;;;;;1.92;1.48;;;26.30;99.90;;;;;;5050529;28;20029;-75
2021/11/25 01:20:29;;;;;;;2.20;1.42;;;26.10;99.90;;;;;;5045742;28;20344;-78
2021/11/25 01:22:58;;;;;;;3.17;1.40;;;26.10;99.90;;;;;;5041888;28;20057;-77
2021/11/25 01:25:26;;;;;;;2.78;1.92;;;26.40;99.90;;;;;;5047279;28;20037;-77
2021/11/25 01:27:53;;;;;;;3.25;1.35;;;26.70;99.90;;;;;;5041642;28;20040;-76
2021/11/25 01:30:21;;;;;;;2.42;1.92;;;26.70;99.90;;;;;;5049856;28;20040;-79
2021/11/25 01:32:48;;;;;;;1.92;1.63;;;26.80;99.90;;;;;;5050813;28;20510;-76
2021/11/25 01:35:17;;;;;;;3.58;1.35;;;26.80;99.90;;;;;;5050371;28;20048;-78
2021/11/25 01:37:44;;;;;;;2.40;1.60;;;26.80;99.90;;;;;;5050977;28;20029;-74
2021/11/25 01:40:14;;;;;;;1.65;1.40;;;26.90;99.90;;;;;;5045761;28;20025;-76
2021/11/25 01:42:43;;;;;;;2.13;1.92;;;26.80;99.90;;;;;;5050938;28;20380;-76
2021/11/25 01:45:13;;;;;;;3.63;1.55;;;26.60;99.90;;;;;;5048911;28;20041;-76
2021/11/25 01:47:46;;;;;;;3.15;2.05;;;26.40;99.90;;;;;;5043650;28;20021;-76
2021/11/25 01:50:18;;;;;;;1.65;1.50;;;26.20;99.90;;;;;;5043282;28;20025;-77
2021/11/25 01:52:46;;;;;;;2.20;1.67;;;26.20;99.90;;;;;;5050321;28;20028;-75
2021/11/25 01:55:16;;;;;;;8.48;2.63;;;26.20;99.90;;;;;;5038877;28;20063;-75
2021/11/25 01:57:44;;;;;;;2.13;1.67;;;26.10;99.90;;;;;;5045828;28;20021;-76
2021/11/25 02:00:20;;;;;;;1.88;1.65;;;26.00;99.90;;;;;;5050874;28;20069;-75
2021/11/25 02:02:48;;;;;;;2.70;1.67;;;26.10;99.90;;;;;;5034521;28;20033;-74
2021/11/25 02:05:15;;;;;;;4.72;2.40;;;25.90;99.90;;;;;;5045378;28;20476;-77
2021/11/25 02:07:43;;;;;;;1.48;1.38;;;25.80;99.90;;;;;;5049037;28;20029;-77
2021/11/25 02:10:11;;;;;;;3.13;1.77;;;25.80;99.90;;;;;;5038514;28;20029;-77
2021/11/25 02:12:39;;;;;;;4.63;1.80;;;25.70;99.90;;;;;;5049419;28;20032;-76
2021/11/25 02:15:09;;;;;;;2.22;1.90;;;25.70;99.90;;;;;;5046699;28;20055;-77
2021/11/25 02:17:37;;;;;;;3.22;2.08;;;25.70;99.90;;;;;;5051404;28;20025;-78
2021/11/25 02:20:08;;;;;;;4.70;1.73;;;25.60;99.90;;;;;;5049980;28;20037;-75
2021/11/25 02:22:37;;;;;;;2.13;1.85;;;25.60;99.90;;;;;;5039384;28;20025;-77
2021/11/25 02:25:07;;;;;;;2.75;1.50;;;25.60;99.90;;;;;;5033170;28;20025;-74
2021/11/25 02:27:35;;;;;;;4.00;2.05;;;25.70;99.90;;;;;;5050212;28;20488;-78
2021/11/25 02:30:04;;;;;;;3.88;1.90;;;25.80;99.90;;;;;;5042228;28;20037;-73
2021/11/25 02:32:36;;;;;;;2.40;1.92;;;25.90;99.90;;;;;;5046181;28;20040;-77
2021/11/25 02:35:12;;;;;;;2.00;1.67;;;25.80;99.90;;;;;;5041034;28;20049;-78
2021/11/25 02:37:43;;;;;;;1.95;1.73;;;25.70;99.90;;;;;;5055891;28;20036;-73
2021/11/25 02:40:35;;;;;;;2.53;2.10;;;25.70;99.90;;;;;;5048633;28;20037;-76
2021/11/25 02:43:07;;;;;;;4.18;2.13;;;25.60;99.90;;;;;;5039687;28;20044;-75
2021/11/25 02:45:44;;;;;;;2.58;2.03;;;25.50;99.90;;;;;;5043535;28;20088;-74
2021/11/25 02:48:13;;;;;;;2.28;2.03;;;25.50;99.90;;;;;;5038200;28;20029;-75
2021/11/25 02:50:41;;;;;;;2.50;1.80;;;25.50;99.90;;;;;;5048697;28;20680;-75
2021/11/25 02:53:11;;;;;;;2.45;2.08;;;25.70;99.90;;;;;;5048880;28;20067;-76
2021/11/25 02:55:39;;;;;;;3.85;2.40;;;25.80;99.90;;;;;;5041282;28;20032;-74
2021/11/25 02:58:07;;;;;;;2.45;2.05;;;26.00;99.90;;;;;;5050652;28;20029;-77
2021/11/25 03:00:41;;;;;;;2.17;1.98;;;26.10;99.90;;;;;;5045064;28;20062;-75
2021/11/25 03:03:12;;;;;;;5.07;2.43;;;26.10;99.90;;;;;;5050667;28;20158;-75
2021/11/25 03:05:44;;;;;;;3.10;2.50;;;26.10;99.90;;;;;;5051473;28;20031;-77
2021/11/25 03:08:13;;;;;;;2.90;2.50;;;26.00;99.90;;;;;;5053098;28;20037;-76
2021/11/25 03:10:46;;;;;;;2.67;2.28;;;26.00;99.90;;;;;;5051627;28;20032;-76
2021/11/25 03:13:15;;;;;;;3.90;2.90;;;25.90;99.90;;;;;;5051054;28;20038;-75
2021/11/25 03:15:43;;;;;;;3.10;2.55;;;25.80;99.90;;;;;;5050790;28;20717;-77
2021/11/25 03:18:12;;;;;;;3.38;2.78;;;25.70;99.90;;;;;;5052355;28;20036;-78
2021/11/25 03:20:43;;;;;;;4.15;2.97;;;25.70;99.90;;;;;;5052091;28;20033;-77
2021/11/25 03:23:13;;;;;;;2.90;2.30;;;25.60;99.90;;;;;;5047904;28;20082;-77
2021/11/25 03:25:42;;;;;;;2.83;2.53;;;25.50;99.90;;;;;;5049283;28;20029;-76
2021/11/25 03:28:10;;;;;;;3.90;2.80;;;25.60;99.90;;;;;;5044522;28;20040;-77
2021/11/25 03:30:38;;;;;;;3.40;2.50;;;25.70;99.90;;;;;;5052106;28;20055;-75
2021/11/25 03:33:08;;;;;;;3.35;2.85;;;26.00;99.90;;;;;;5052114;28;20538;-78
2021/11/25 03:35:37;;;;;;;6.07;3.60;;;26.30;99.90;;;;;;5048837;28;20382;-77
2021/11/25 03:38:06;;;;;;;3.30;3.00;;;26.70;99.90;;;;;;5053011;28;20022;-75
2021/11/25 03:40:34;;;;;;;3.97;3.20;;;26.90;99.90;;;;;;5050913;28;20025;-76
2021/11/25 03:43:02;;;;;;;5.05;3.10;;;27.10;99.90;;;;;;5051067;28;20112;-76
2021/11/25 03:45:29;;;;;;;4.72;3.13;;;27.30;99.90;;;;;;5051533;28;20479;-77
2021/11/25 03:47:57;;;;;;;3.58;3.10;;;27.30;99.90;;;;;;5053587;28;20029;-75
2021/11/25 03:50:25;;;;;;;3.50;2.85;;;27.40;99.90;;;;;;5051792;28;20080;-76
2021/11/25 03:52:52;;;;;;;4.47;2.80;;;27.30;99.90;;;;;;5053242;28;20116;-76
2021/11/25 03:55:20;;;;;;;3.72;3.00;;;27.30;99.90;;;;;;5052579;28;20032;-77
2021/11/25 03:57:49;;;;;;;3.63;3.03;;;27.40;99.90;;;;;;5052423;28;20059;-76
2021/11/25 04:00:20;;;;;;;3.80;2.97;;;27.60;99.90;;;;;;5051472;28;20049;-77
2021/11/25 04:02:49;;;;;;;3.63;2.75;;;27.60;99.90;;;;;;5047907;28;20462;-74
2021/11/25 04:05:17;;;;;;;4.30;2.80;;;27.60;99.90;;;;;;5051093;28;20654;-77
2021/11/25 04:07:44;;;;;;;3.25;2.95;;;27.50;99.90;;;;;;5052122;28;20021;-74
2021/11/25 04:10:13;;;;;;;3.25;2.40;;;27.60;99.90;;;;;;5047693;28;20099;-73
2021/11/25 04:12:41;;;;;;;4.25;2.65;;;27.60;99.90;;;;;;5049192;28;20021;-73
2021/11/25 04:15:10;;;;;;;3.25;2.95;;;27.60;99.90;;;;;;5051339;28;20040;-79
2021/11/25 04:17:37;;;;;;;2.63;2.42;;;27.80;99.90;;;;;;5051563;28;20021;-75
2021/11/25 04:20:07;;;;;;;3.92;3.15;;;28.10;99.90;;;;;;5051441;28;20053;-74
2021/11/25 04:22:34;;;;;;;2.63;2.35;;;28.40;99.90;;;;;;5051480;28;20029;-78
2021/11/25 04:25:03;;;;;;;2.78;2.10;;;28.60;99.90;;;;;;5049414;28;20029;-78
2021/11/25 04:27:31;;;;;;;4.38;3.15;;;28.60;99.90;;;;;;5051582;28;20105;-78
2021/11/25 04:38:08;;;;;;;3.67;3.05;;;27.60;99.90;;;;;;5051278;28;20083;-75
2021/11/25 04:40:44;;;;;;;3.33;2.65;;;27.50;99.90;;;;;;5047036;28;20105;-74
2021/11/25 04:43:10;;;;;;;;;;;27.40;99.90;;;;;;5047823;28;20557;-75
2021/11/25 04:45:40;;;;;;;4.68;3.08;;;27.30;99.90;;;;;;5045269;28;19909;-74
2021/11/25 04:48:08;;;;;;;3.03;2.72;;;27.20;99.90;;;;;;5043621;28;20036;-74
2021/11/25 04:50:37;;;;;;;3.40;3.05;;;27.10;99.90;;;;;;5051162;28;20029;-78
2021/11/25 04:53:05;;;;;;;3.95;3.00;;;27.00;99.90;;;;;;5050083;28;20033;-75
2021/11/25 04:55:33;;;;;;;3.40;3.05;;;26.90;99.90;;;;;;5045784;28;20028;-79
2021/11/25 04:58:00;;;;;;;4.85;3.47;;;26.70;99.90;;;;;;5045498;28;20101;-74
2021/11/25 05:00:28;;;;;;;3.05;2.50;;;26.60;99.90;;;;;;5050035;28;20051;-77
2021/11/25 05:02:55;;;;;;;4.00;3.60;;;26.40;99.90;;;;;;5052375;28;20454;-75
2021/11/25 05:05:23;;;;;;;4.07;3.33;;;26.20;99.90;;;;;;5053976;28;20068;-76
2021/11/25 05:07:50;;;;;;;4.93;3.40;;;26.10;99.90;;;;;;5054150;28;20017;-76
2021/11/25 05:10:18;;;;;;;4.05;3.33;;;26.00;99.90;;;;;;5054704;28;20104;-77
2021/11/25 05:12:45;;;;;;;5.82;3.80;;;25.80;99.90;;;;;;5053320;28;20017;-78
2021/11/25 05:15:15;;;;;;;4.97;4.05;;;25.60;99.90;;;;;;5050762;28;20024;-76
2021/11/25 05:17:43;;;;;;;5.85;3.53;;;25.60;99.90;;;;;;5051780;28;20031;-77
2021/11/25 05:20:13;;;;;;;3.92;3.53;;;25.40;99.90;;;;;;5055606;28;20086;-75
2021/11/25 05:22:42;;;;;;;5.53;4.35;;;25.30;99.90;;;;;;5056116;28;20028;-76
2021/11/25 05:25:12;;;;;;;4.68;4.18;;;25.20;99.90;;;;;;5050099;28;20041;-76
2021/11/25 05:27:40;;;;;;;5.72;4.80;;;25.20;99.90;;;;;;5052351;28;20169;-79
2021/11/25 05:30:10;;;;;;;8.07;4.53;;;25.10;99.90;;;;;;5052645;28;20076;-79
2021/11/25 05:32:38;;;;;;;6.90;5.15;;;25.00;99.90;;;;;;5048874;28;20040;-79
2021/11/25 05:35:07;;;;;;;6.85;5.10;;;25.00;99.90;;;;;;5050005;28;20313;-80
2021/11/25 05:37:35;;;;;;;5.38;4.30;;;24.90;99.90;;;;;;5052853;28;20029;-79
2021/11/25 05:40:04;;;;;;;6.47;5.40;;;24.80;99.90;;;;;;5049402;28;20074;-75
2021/11/25 05:42:32;;;;;;;7.38;4.20;;;24.70;99.90;;;;;;5047806;28;20032;-76
2021/11/25 05:45:00;;;;;;;5.30;3.70;;;24.40;99.90;;;;;;5046091;28;20021;-76
2021/11/25 05:47:31;;;;;;;8.20;5.15;;;24.20;99.90;;;;;;5047512;28;20099;-76
2021/11/25 05:49:59;;;;;;;7.03;4.53;;;24.20;99.90;;;;;;5047624;28;20040;-76
2021/11/25 05:52:26;;;;;;;5.47;3.80;;;24.10;99.90;;;;;;5050514;28;20040;-77
2021/11/25 05:54:54;;;;;;;5.85;4.57;;;24.10;99.90;;;;;;5049283;28;20092;-78
2021/11/25 05:57:22;;;;;;;5.97;4.63;;;24.10;99.90;;;;;;5048007;28;20602;-76
2021/11/25 05:59:50;;;;;;;6.63;4.43;;;24.10;99.90;;;;;;5048974;28;20051;-77
2021/11/25 06:02:20;;;;;;;5.03;3.70;;;24.10;99.90;;;;;;5047560;28;20017;-75
2021/11/25 06:04:48;;;;;;;7.25;4.00;;;24.10;99.90;;;;;;5049146;28;20048;-76
2021/11/25 06:07:16;;;;;;;5.55;3.72;;;24.00;99.90;;;;;;5047672;28;20513;-78
2021/11/25 06:09:43;;;;;;;6.93;4.15;;;24.10;99.90;;;;;;5043184;28;20060;-74
2021/11/25 06:12:11;;;;;;;8.05;4.57;;;24.00;99.90;;;;;;5043872;28;20037;-76
2021/11/25 06:14:38;;;;;;;4.45;3.92;;;24.00;99.90;;;;;;5040420;28;20496;-76
2021/11/25 06:17:06;;;;;;;6.93;3.92;;;24.00;99.90;;;;;;5048264;28;20033;-75
2021/11/25 06:19:33;;;;;;;6.22;3.80;;;24.00;99.90;;;;;;5047037;28;20037;-76
2021/11/25 06:22:01;;;;;;;4.60;4.10;;;24.00;99.90;;;;;;5045950;28;20490;-80
2021/11/25 06:24:29;;;;;;;6.35;4.57;;;24.00;99.90;;;;;;5049928;28;20429;-77
2021/11/25 06:26:56;;;;;;;6.75;4.57;;;24.00;99.90;;;;;;5049948;28;20119;-75
2021/11/25 06:29:24;;;;;;;5.47;4.50;;;24.00;99.90;;;;;;5052351;28;20029;-75
2021/11/25 06:31:51;;;;;;;7.00;4.70;;;24.10;99.90;;;;;;5051071;28;20063;-77
2021/11/25 06:34:19;;;;;;;7.30;5.32;;;24.30;99.90;;;;;;5050566;28;20062;-77
2021/11/25 06:36:46;;;;;;;8.60;5.22;;;24.40;99.90;;;;;;5046515;28;20794;-77
2021/11/25 06:39:13;;;;;;;5.10;4.53;;;24.50;99.90;;;;;;5048870;28;20049;-77
2021/11/25 06:41:41;;;;;;;7.18;4.63;;;24.40;99.90;;;;;;5056617;28;20497;-76
2021/11/25 06:44:08;;;;;;;9.52;4.93;;;24.40;99.90;;;;;;5043900;28;20061;-75
2021/11/25 06:46:36;;;;;;;6.45;5.43;;;24.40;99.90;;;;;;5051887;28;20488;-75
2021/11/25 06:49:04;;;;;;;10.02;5.57;;;24.40;99.90;;;;;;5050977;28;20083;-77
2021/11/25 06:51:32;;;;;;;6.95;5.20;;;24.40;99.90;;;;;;5052539;28;20044;-77
2021/11/25 06:54:00;;;;;;;6.07;5.32;;;24.40;99.90;;;;;;5053270;28;20478;-76
2021/11/25 06:56:28;;;;;;;7.15;4.43;;;24.30;99.90;;;;;;5046878;28;20502;-74
2021/11/25 06:58:56;;;;;;;6.55;5.20;;;24.20;99.90;;;;;;5049537;28;20043;-74
2021/11/25 07:01:26;;;;;;;8.48;4.75;;;24.10;99.90;;;;;;5049617;28;20033;-74
2021/11/25 07:03:53;;;;;;;5.13;4.18;;;24.00;99.90;;;;;;5053195;28;20037;-73
2021/11/25 07:06:21;;;;;;;8.07;4.57;;;24.00;99.90;;;;;;5051236;28;20024;-73
2021/11/25 07:08:48;;;;;;;4.80;4.10;;;24.00;99.90;;;;;;5051863;28;20081;-74
2021/11/25 07:11:15;;;;;;;4.43;4.03;;;24.00;99.90;;;;;;5051967;28;20052;-74
2021/11/25 07:13:43;;;;;;;9.52;4.38;;;23.90;99.90;;;;;;5052888;28;20025;-74
2021/11/25 07:16:10;;;;;;;5.35;4.38;;;23.80;99.90;;;;;;5051196;28;20017;-73
2021/11/25 07:18:38;;;;;;;5.35;3.55;;;23.70;99.90;;;;;;5052627;28;20432;-74
2021/11/25 07:21:05;;;;;;;5.47;3.78;;;23.80;99.90;;;;;;5052286;28;20394;-77
2021/11/25 07:23:32;;;;;;;8.05;3.78;;;23.80;99.90;;;;;;5051812;28;20025;-77
2021/11/25 07:26:00;;;;;;;6.20;3.72;;;24.00;99.90;;;;;;5050138;28;20039;-78
2021/11/25 07:28:28;;;;;;;4.60;3.45;;;23.90;99.90;;;;;;5052683;28;20025;-77
2021/11/25 07:30:57;;;;;;;4.10;3.08;;;23.80;99.90;;;;;;5051633;28;20128;-78
2021/11/25 07:33:25;;;;;;;5.88;4.63;;;23.80;99.90;;;;;;5055274;28;20476;-77
2021/11/25 07:35:52;;;;;;;6.95;3.88;;;23.80;99.90;;;;;;5052085;28;20021;-76
2021/11/25 07:38:19;;;;;;;5.30;3.13;;;23.80;99.90;;;;;;5053461;28;20066;-76
2021/11/25 07:40:48;;;;;;;4.75;3.55;;;24.00;99.90;;;;;;5051808;28;20044;-75
2021/11/25 07:43:16;;;;;;;6.45;4.03;;;24.00;99.90;;;;;;5052795;28;20025;-76
2021/11/25 07:45:44;;;;;;;4.45;3.38;;;23.90;99.90;;;;;;5052286;28;20025;-76
2021/11/25 07:48:14;;;;;;;6.13;3.83;;;23.80;99.90;;;;;;5052078;28;20021;-76
2021/11/25 07:50:42;;;;;;;5.57;4.43;;;23.70;99.90;;;;;;5042831;28;20029;-76
2021/11/25 07:53:10;;;;;;;5.22;4.72;;;23.70;99.90;;;;;;5050390;28;20115;-77
2021/11/25 07:55:38;;;;;;;6.43;5.07;;;23.60;99.90;;;;;;5051347;28;20392;-76
2021/11/25 07:58:05;;;;;;;7.90;5.57;;;23.50;99.90;;;;;;5052761;28;20051;-76
2021/11/25 08:00:33;;;;;;;5.72;4.45;;;23.50;99.90;;;;;;5048785;28;20041;-76
2021/11/25 08:03:00;;;;;;;8.02;4.93;;;23.40;99.90;;;;;;5052336;28;20025;-76
2021/11/25 08:05:28;;;;;;;8.57;5.32;;;23.40;99.90;;;;;;5051653;28;20056;-79
2021/11/25 08:07:58;;;;;;;6.45;5.80;;;23.40;99.90;;;;;;5053069;28;20100;-78
2021/11/25 08:10:27;;;;;;;8.68;5.90;;;23.50;99.90;;;;;;5050360;28;20030;-78
2021/11/25 08:12:58;;;;;;;8.25;5.80;;;23.70;99.90;;;;;;5053963;28;20108;-82
2021/11/25 08:15:26;;;;;;;6.63;5.40;;;23.80;99.90;;;;;;5049499;28;20021;-78
2021/11/25 08:17:54;;;;;;;8.23;6.05;;;23.80;99.90;;;;;;5052701;28;20032;-77
2021/11/25 08:20:21;;;;;;;8.90;4.90;;;23.60;99.90;;;;;;5051118;28;20120;-77
2021/11/25 08:22:49;;;;;;;4.85;4.10;;;23.50;99.90;;;;;;5051932;28;20028;-79
2021/11/25 08:25:17;;;;;;;7.20;4.68;;;23.50;99.90;;;;;;5051750;28;20969;-78
2021/11/25 08:27:45;;;;;;;5.90;4.75;;;23.50;99.90;;;;;;5051451;28;20025;-80
2021/11/25 08:30:14;;;;;;;8.30;7.05;;;23.40;99.90;;;;;;5052072;28;20044;-81
2021/11/25 08:32:42;;;;;;;10.63;7.70;;;23.40;99.90;;;;;;5056370;28;20099;-79
2021/11/25 08:35:11;;;;;;;7.85;6.15;;;23.30;99.90;;;;;;5052840;28;20464;-78
2021/11/25 08:37:39;;;;;;;8.05;5.22;;;23.20;99.90;;;;;;5052804;28;20036;-81
2021/11/25 08:40:08;;;;;;;6.72;4.38;;;23.20;99.90;;;;;;5050612;28;20811;-82
2021/11/25 08:42:36;;;;;;;6.07;3.88;;;23.10;99.90;;;;;;5051400;28;20210;-85
2021/11/25 08:45:08;;;;;;;4.25;3.40;;;23.10;99.90;;;;;;5053120;28;20033;-85
2021/11/25 08:47:36;;;;;;;6.65;4.30;;;23.00;99.90;;;;;;5051555;28;20361;-81
2021/11/25 08:50:06;;;;;;;3.75;3.05;;;23.10;99.90;;;;;;5051590;28;20049;-82
2021/11/25 08:52:34;;;;;;;5.78;3.70;;;23.10;99.90;;;;;;5054323;28;20029;-80
2021/11/25 08:55:01;;;;;;;4.68;3.50;;;23.10;99.90;;;;;;5051894;28;20078;-82
2021/11/25 08:57:29;;;;;;;3.15;2.58;;;23.10;99.90;;;;;;5052863;28;20036;-81
2021/11/25 08:59:56;;;;;;;5.00;3.15;;;23.10;99.90;;;;;;5056195;28;20045;-82
2021/11/25 09:02:24;;;;;;;3.60;2.95;;;23.10;99.90;;;;;;5049140;28;20025;-82
2021/11/25 09:04:52;;;;;;;4.68;2.92;;;23.10;99.90;;;;;;5045092;28;20475;-83
2021/11/25 09:07:19;;;;;;;3.63;2.72;;;23.10;99.90;;;;;;5054167;28;20052;-80
2021/11/25 09:09:47;;;;;;;4.93;4.10;;;23.10;99.90;;;;;;5042472;28;20033;-83
2021/11/25 09:12:14;;;;;;;5.43;2.92;;;23.10;99.90;;;;;;5051210;28;20418;-78
2021/11/25 09:14:41;;;;;;;3.50;2.83;;;23.10;99.90;;;;;;5051456;28;20170;-82
2021/11/25 09:17:09;;;;;;;5.80;3.88;;;23.10;99.90;;;;;;5048918;28;20036;-82
2021/11/25 09:19:37;;;;;;;6.80;4.40;;;23.10;99.90;;;;;;5054258;28;20051;-79
2021/11/25 09:22:05;;;;;;;5.97;5.30;;;23.10;99.90;;;;;;5053729;28;20483;-82
2021/11/25 09:24:34;;;;;;;6.85;4.60;;;23.10;99.90;;;;;;5051242;28;20044;-81
2021/11/25 09:27:03;;;;;;;4.95;4.00;;;23.10;99.90;;;;;;5050282;28;20432;-84
2021/11/25 09:29:31;;;;;;;4.20;3.20;;;23.10;99.90;;;;;;5049163;28;20517;-81
2021/11/25 09:31:58;;;;;;;4.57;3.10;;;23.10;99.90;;;;;;5050682;28;20045;-82
2021/11/25 09:34:27;;;;;;;5.18;3.50;;;23.10;99.90;;;;;;5052507;28;20033;-85
2021/11/25 09:36:58;;;;;;;4.50;3.17;;;23.10;99.90;;;;;;5051883;28;20025;-82
2021/11/25 09:39:26;;;;;;;3.85;2.85;;;23.10;99.90;;;;;;5034798;28;20499;-81
2021/11/25 09:41:55;;;;;;;3.35;3.05;;;23.00;99.90;;;;;;5053735;28;20468;-80
2021/11/25 09:44:24;;;;;;;4.60;2.63;;;23.00;99.90;;;;;;5053086;28;20045;-81
2021/11/25 09:46:59;;;;;;;4.55;3.38;;;23.10;99.90;;;;;;5051954;28;20031;-80
2021/11/25 09:49:28;;;;;;;3.17;2.63;;;23.10;99.90;;;;;;5052107;28;20060;-81
2021/11/25 09:51:57;;;;;;;3.75;2.30;;;23.10;99.90;;;;;;5049673;28;20032;-79
2021/11/25 09:54:25;;;;;;;5.93;2.92;;;23.10;99.90;;;;;;5054616;28;20067;-83
2021/11/25 09:56:53;;;;;;;5.03;3.80;;;23.10;99.90;;;;;;5053440;28;20036;-83
2021/11/25 09:59:20;;;;;;;3.53;2.30;;;23.00;99.90;;;;;;5055405;28;20036;-82
2021/11/25 10:01:49;;;;;;;4.30;2.53;;;23.00;99.90;;;;;;5055310;28;20897;-81
2021/11/25 10:04:16;;;;;;;2.72;2.30;;;23.00;99.90;;;;;;5052635;28;20048;-83
2021/11/25 10:06:59;;;;;;;3.00;2.17;;;23.00;99.90;;;;;;5049880;28;20119;-83
2021/11/25 10:09:41;;;;;;;3.70;2.53;;;23.00;99.90;;;;;;5049617;28;20033;-80
2021/11/25 10:12:36;;;;;;;3.67;2.53;;;23.00;99.90;;;;;;5048815;28;20051;-79
2021/11/25 10:15:34;;;;;;;5.18;3.55;;;23.00;99.90;;;;;;5049129;28;20353;-79
2021/11/25 10:18:13;;;;;;;7.80;2.53;;;22.90;99.90;;;;;;5051456;28;20032;-75
2021/11/25 10:21:02;;;;;;;2.53;2.22;;;22.80;99.90;;;;;;5048005;28;20025;-78
2021/11/25 10:23:30;;;;;;;3.20;2.05;;;22.80;99.90;;;;;;5043393;28;20024;-80
2021/11/25 10:26:09;;;;;;;4.05;2.20;;;22.80;99.90;;;;;;5048350;28;20033;-77
2021/11/25 10:28:57;;;;;;;4.25;2.90;;;22.70;99.90;;;;;;5047846;28;20040;-78
2021/11/25 10:31:31;;;;;;;3.90;2.88;;;22.70;99.90;;;;;;5041608;28;20563;-78
2021/11/25 10:34:09;;;;;;;6.82;3.50;;;22.60;99.90;;;;;;5047708;28;20081;-78
2021/11/25 10:42:16;;;;;;;5.32;3.15;;;22.40;99.90;;;;;;5048753;28;20051;-80
2021/11/25 10:44:52;;;;;;;8.20;4.72;;;22.30;99.90;;;;;;5051632;28;20083;-80
2021/11/25 10:47:25;;;;;;;4.55;3.63;;;22.30;99.90;;;;;;5050152;28;20044;-78
2021/11/25 10:49:56;;;;;;;5.95;4.50;;;22.30;99.90;;;;;;5049223;28;20051;-77
2021/11/25 10:52:48;;;;;;;10.10;5.18;;;22.30;99.90;;;;;;5048675;28;20029;-78
2021/11/25 10:55:22;;;;;;;6.55;4.55;;;22.30;99.90;;;;;;5040464;28;20029;-78
2021/11/25 10:58:00;;;;;;;6.25;3.60;;;22.20;99.90;;;;;;5040644;28;20032;-80
2021/11/25 11:00:37;;;;;;;7.25;4.20;;;22.20;99.90;;;;;;5042827;28;20037;-76
2021/11/25 11:03:08;;;;;;;6.05;4.07;;;22.10;99.90;;;;;;5048027;28;20108;-77
2021/11/25 11:06:04;;;;;;;6.03;3.58;;;22.10;99.90;;;;;;5044008;28;20024;-76
2021/11/25 11:08:42;;;;;;;7.30;4.35;;;22.00;99.90;;;;;;5038835;28;20032;-76
2021/11/25 11:11:10;;;;;;;6.00;3.83;;;22.10;99.90;;;;;;5051122;28;20448;-77
2021/11/25 11:14:11;;;;;;;8.27;4.47;;;22.00;99.90;;;;;;5043686;28;20377;-78
2021/11/25 11:16:46;;;;;;;5.10;3.70;;;22.00;99.90;;;;;;5039008;28;20033;-78
2021/11/25 11:19:19;;;;;;;4.68;3.60;;;22.00;99.90;;;;;;5041151;28;20045;-80
2021/11/25 11:21:49;;;;;;;6.40;3.92;;;22.10;99.90;;;;;;5037126;28;20132;-79
2021/11/25 11:24:30;;;;;;;5.70;4.10;;;22.10;99.90;;;;;;5039169;28;20035;-81
2021/11/25 11:27:09;;;;;;;7.93;4.07;;;22.10;99.90;;;;;;5044857;28;20499;-79
2021/11/25 11:29:37;;;;;;;9.18;5.22;;;22.20;99.90;;;;;;5042804;28;20035;-78
2021/11/25 11:32:07;;;;;;;6.30;5.03;;;22.20;99.90;;;;;;5047678;28;20565;-82
2021/11/25 11:34:39;;;;;;;7.22;4.03;;;22.30;99.90;;;;;;5046650;28;20021;-79
2021/11/25 11:37:07;;;;;;;7.25;3.13;;;22.20;99.90;;;;;;5045344;28;20542;-79
2021/11/25 11:39:35;;;;;;;7.50;3.70;;;22.20;99.90;;;;;;5043811;28;20492;-83
2021/11/25 11:42:07;;;;;;;5.35;4.05;;;22.30;99.90;;;;;;5054746;28;20048;-82
2021/11/25 11:44:35;;;;;;;7.30;4.18;;;22.30;99.90;;;;;;5064593;28;20083;-82
2021/11/25 11:47:08;;;;;;;7.95;4.82;;;22.30;99.90;;;;;;5053483;28;20075;-78
2021/11/25 11:49:43;;;;;;;6.35;4.50;;;22.30;99.90;;;;;;5029494;28;20041;-81
2021/11/25 11:52:24;;;;;;;6.43;4.70;;;22.30;99.90;;;;;;5040044;28;20033;-80
2021/11/25 11:54:56;;;;;;;6.68;5.65;;;22.30;99.90;;;;;;5040970;28;20025;-78
2021/11/25 11:57:35;;;;;;;9.05;5.72;;;22.30;99.90;;;;;;5040022;28;20094;-80
2021/11/25 12:00:28;;;;;;;9.30;5.97;;;22.30;99.90;;;;;;5043171;28;20045;-77
2021/11/25 12:03:00;;;;;;;9.70;5.65;;;22.30;99.90;;;;;;5044099;28;20055;-79
2021/11/25 12:05:49;;;;;;;6.53;4.38;;;22.30;99.90;;;;;;5052396;28;20029;-78
2021/11/25 12:08:27;;;;;;;8.13;5.32;;;22.30;99.90;;;;;;5053195;28;20637;-79
2021/11/25 12:11:07;;;;;;;5.88;4.25;;;22.30;99.90;;;;;;5047930;28;20222;-78
2021/11/25 12:13:49;;;;;;;9.73;6.68;;;22.30;99.90;;;;;;5045983;28;20056;-82
2021/11/25 12:16:20;;;;;;;9.77;6.05;;;22.20;99.90;;;;;;5043849;28;20484;-76
2021/11/25 12:19:01;;;;;;;8.23;5.78;;;22.20;99.90;;;;;;5042312;28;20041;-77
2021/11/25 12:21:40;;;;;;;8.27;4.20;;;22.20;99.90;;;;;;5046545;28;20025;-76
2021/11/25 12:24:45;;;;;;;7.47;4.55;;;22.20;99.90;;;;;;5046257;28;20069;-76
2021/11/25 12:27:24;;;;;;;5.18;3.75;;;22.20;99.90;;;;;;5051511;28;20029;-76
2021/11/25 12:30:07;;;;;;;8.63;5.05;;;22.10;99.90;;;;;;5044528;28;20038;-77
2021/11/25 12:32:48;;;;;;;9.13;4.60;;;22.10;99.90;;;;;;5031701;28;20066;-77
2021/11/25 12:35:18;;;;;;;6.97;4.88;;;22.10;99.90;;;;;;5051301;28;20391;-76
2021/11/25 12:37:46;;;;;;;7.80;4.70;;;22.10;99.90;;;;;;5050960;28;20028;-77
2021/11/25 12:40:22;;;;;;;7.22;5.35;;;22.10;99.90;;;;;;5049500;28;20395;-76
2021/11/25 12:43:02;;;;;;;9.95;6.20;;;22.10;99.90;;;;;;5046946;28;20368;-76
2021/11/25 12:45:52;;;;;;;11.90;7.20;;;22.00;99.90;;;;;;5041485;28;20028;-76
2021/11/25 12:48:29;;;;;;;8.20;6.38;;;22.10;99.90;;;;;;5030065;28;20028;-77
2021/11/25 12:51:13;;;;;;;10.50;7.15;;;22.10;99.90;;;;;;5040074;28;20025;-77
2021/11/25 12:53:58;;;;;;;9.00;6.75;;;22.00;99.90;;;;;;5042100;28;20017;-78
2021/11/25 12:56:34;;;;;;;10.85;6.85;;;22.00;99.90;;;;;;5039020;28;20109;-78
2021/11/25 12:59:10;;;;;;;12.48;8.02;;;22.00;99.90;;;;;;5037754;28;20132;-77
2021/11/25 13:01:47;;;;;;;12.30;8.85;;;22.00;99.90;;;;;;5042409;28;20064;-77
2021/11/25 13:04:23;;;;;;;9.98;7.75;;;22.00;99.90;;;;;;5048676;28;20033;-78
2021/11/25 13:07:02;;;;;;;12.18;8.00;;;22.00;99.90;;;;;;5048816;28;20025;-78
2021/11/25 13:09:35;;;;;;;12.55;8.88;;;22.00;99.90;;;;;;5038814;28;20025;-77
2021/11/25 13:12:04;;;;;;;9.93;8.82;;;21.90;99.90;;;;;;5043989;28;20032;-78
2021/11/25 13:14:32;;;;;;;11.73;8.73;;;22.00;99.90;;;;;;5035456;28;20161;-78
2021/11/25 13:17:10;;;;;;;13.32;8.95;;;21.80;99.90;;;;;;5040160;28;20357;-78